Casper, WY

9:02 PM MDT on July 30, 2014 (GMT -0600)
North of Casper, WY (KWYBARNU1) Elev 5276 ft | 42.91 °N, 106.35 °W | Change Station

Current weather conditions updated 4 minutes ago

Clear
Clear
68.5 °F
Feels Like 68.5 °F
N
0.0
Wind Variable Wind from NNE
Gusts 0.0 mph

Tomorrow is forecast to be Warmer than today.

Today
High -- | Low -- °F
--% Chance of Precip.
Yesterday
High -- | Low -- °F
Precip. -- in
5:54 AM 8:28 PM
Waxing Crescent, 15% visible
Pressure 30.12 in
Visibility 10.0 miles
Clouds Clear
Dew Point 41 °F
Humidity 37%
Rainfall 0.02 in
Snow Depth 0 in
UV 0 out of 12
Pollen 5.00 out of 12
Air Quality Not available.
Flu Activity Not available.
METAR KCPR 310253Z 03004KT 10SM CLR 19/06 A3027 RMK AO2 SLP199 T01890056 53001

More Conditions Fewer Conditions

Pressure 30.12 in
Visibility 10.0 miles
Clouds Clear
Dew Point 41 °F
Humidity 37%
Rainfall 0.02 in
Snow Depth 0 in
UV 0 out of 12
Pollen 5.00 out of 12
Air Quality Not available.
Flu Activity Not available.
METAR KCPR 310253Z 03004KT 10SM CLR 19/06 A3027 RMK AO2 SLP199 T01890056 53001

More Conditions Fewer Conditions

10-Day Weather Forecast

Almanac

Astronomy

Jul. 30, 2014 Rise Set
Actual Time 5:54 AM MDT 8:28 PM MDT
Civil Twilight 5:22 AM MDT 9:00 PM MDT
Nautical Twilight 4:41 AM MDT 9:40 PM MDT
Astronomical Twilight 3:55 AM MDT 10:26 PM MDT
Moon 9:35 AM MDT (7/30) 10:05 PM MDT (7/30)
Length of Visible Light 15h 38m
Length of Day
14h 33m
Tomorrow will be 2m 10s shorter.
Waxing Crescent, 15% of the Moon is Illuminated
Today
Waxing Crescent
Aug 3
First Quarter
Aug 10
Full
Aug 17
Last Quarter
Aug 25
New

Today's Extremes

State Highs State Lows

Community

WunderPhotos

Upload Photos

1,739,279 photos uploaded!

Nearby

Snow Depth

Station Depth Elevation
Casper Mountain 0 in 7850 ft
Sand Lake 0 in 10050 ft
Brooklyn Lake 0 in 10220 ft
South Brush Creek 0 in 8440 ft
Sage Creek Basin 0 in 7850 ft

Earthquake Activity

City Distance Mag. Time & Date
No recent earthquake activity has been reported nearby.
Minimum magnitude displayed is 2.5.

Coastal Water Temperatures

Place Temperature
No Stations Reporting

Nearby Weather Stations

Station Location Temp. Heat Index Dew Point Humidity Wind Precip. Elev Updated Type
HADS NORTH PLATTE RIVER AT CASPER WY, Casper, WY 75 °F 73 °F - - North  at  - 0.00 in / hr 5100 ft 7:30 PM MDT MADIS
North of Casper, WY, Bar Nunn, WY 68.5 °F - 41 °F 37% NNE  at  0.0 mph 0.00 in / hr 5276 ft 8:58 PM MDT Normal
North of Rolling Hills WY, Glenrock, WY 71.5 °F 76 °F 38 °F 29% NE  at  0.0 mph 0.00 in / hr 5421 ft 8:01 PM MDT Rapid Fire
RAWS CASPER MOUNTAIN WY, Casper, WY 60 °F - 41 °F 50% ENE  at  2 mph 0.00 in / hr 7740 ft 7:52 PM MDT MADIS

Show More Stations Show Fewer Stations